Time;durP1;ratioP1;P1;durP2;ratioP2;P2;SDS_P1;SDS_P2;PMS_P1;PMS_P2;Temp;Humidity;BMP_temperature;BMP_pressure;BME280_temperature;BME280_humidity;BME280_pressure;Samples;Min_cycle;Max_cycle;Signal;HPM_P1;HPM_P2
2022/03/31 00:02:43;;;;;;;1.52;0.30;;;9.80;76.40;;;;;;10358231;28;20069;-65
2022/03/31 00:07:52;;;;;;;0.73;0.38;;;9.70;77.00;;;;;;10350871;28;20033;-64
2022/03/31 00:12:54;;;;;;;1.25;0.52;;;9.70;76.30;;;;;;10363503;28;20144;-65
2022/03/31 00:17:57;;;;;;;0.35;0.28;;;9.80;76.40;;;;;;10363298;28;20014;-64
2022/03/31 00:22:58;;;;;;;0.38;0.22;;;9.70;76.30;;;;;;10336927;28;20034;-65
2022/03/31 00:27:59;;;;;;;1.13;0.40;;;9.70;76.30;;;;;;10360487;28;20431;-65
2022/03/31 00:33:01;;;;;;;2.10;0.47;;;9.60;76.20;;;;;;10341539;28;20073;-65
2022/03/31 00:38:02;;;;;;;2.33;0.38;;;9.60;76.80;;;;;;10364449;28;20021;-63
2022/03/31 00:43:02;;;;;;;1.10;0.28;;;9.70;76.20;;;;;;10356270;28;20048;-65
2022/03/31 00:48:04;;;;;;;2.30;0.55;;;9.70;76.20;;;;;;10363434;28;20053;-64
2022/03/31 00:53:04;;;;;;;0.60;0.20;;;9.60;76.10;;;;;;10349746;28;20037;-67
2022/03/31 00:58:06;;;;;;;0.40;0.40;;;9.70;76.20;;;;;;10372418;28;20021;-65
2022/03/31 01:03:06;;;;;;;0.82;0.30;;;9.60;76.10;;;;;;10357826;28;20033;-64
2022/03/31 01:08:08;;;;;;;1.08;0.40;;;9.50;76.10;;;;;;10357312;28;20022;-64
2022/03/31 01:13:09;;;;;;;0.45;0.28;;;9.50;76.10;;;;;;10370928;28;20054;-64
2022/03/31 01:18:10;;;;;;;1.13;0.52;;;9.50;76.10;;;;;;10366286;28;20462;-64
2022/03/31 01:23:13;;;;;;;2.40;0.40;;;9.50;76.00;;;;;;10346805;28;20018;-64
2022/03/31 01:28:14;;;;;;;1.55;0.40;;;9.50;76.10;;;;;;10368739;28;20076;-64
2022/03/31 01:33:16;;;;;;;0.68;0.40;;;9.50;76.70;;;;;;10349656;28;20034;-64
2022/03/31 01:38:18;;;;;;;1.65;0.50;;;9.40;76.00;;;;;;10358327;28;20080;-61
2022/03/31 01:43:20;;;;;;;0.50;0.30;;;9.40;76.00;;;;;;10362113;28;20382;-64
2022/03/31 01:48:21;;;;;;;1.63;0.40;;;9.40;76.00;;;;;;10368572;28;20349;-64
2022/03/31 01:53:22;;;;;;;1.55;0.50;;;9.40;76.00;;;;;;10352531;28;20321;-65
2022/03/31 01:58:23;;;;;;;1.17;0.43;;;9.40;76.00;;;;;;10368484;28;20033;-65
2022/03/31 02:03:24;;;;;;;0.95;0.40;;;9.30;76.60;;;;;;10356066;28;20025;-64
2022/03/31 02:08:25;;;;;;;1.33;0.40;;;9.30;76.00;;;;;;10353829;28;20392;-65
2022/03/31 02:13:26;;;;;;;0.60;0.30;;;9.30;76.00;;;;;;10366810;28;20068;-65
2022/03/31 02:18:26;;;;;;;0.45;0.40;;;9.30;76.00;;;;;;10362397;28;20045;-65
2022/03/31 02:23:27;;;;;;;0.57;0.40;;;9.30;76.00;;;;;;10345261;28;20022;-64
2022/03/31 02:28:28;;;;;;;0.98;0.38;;;9.30;76.00;;;;;;10362672;28;20146;-65
2022/03/31 02:33:29;;;;;;;0.57;0.35;;;9.30;76.00;;;;;;10347587;28;20080;-65
2022/03/31 02:38:29;;;;;;;1.10;0.40;;;9.30;76.00;;;;;;10366658;28;20423;-64
2022/03/31 02:43:33;;;;;;;2.80;0.45;;;9.20;76.00;;;;;;10359209;28;20041;-64
2022/03/31 02:48:36;;;;;;;2.60;0.45;;;9.20;76.00;;;;;;10365726;28;20123;-65
2022/03/31 02:58:55;;;;;;;;;;;9.20;76.10;;;;;;10353299;28;20022;-65
2022/03/31 03:04:01;;;;;;;1.75;0.43;;;9.20;76.20;;;;;;10342166;28;19917;-65
2022/03/31 03:09:01;;;;;;;0.98;0.40;;;9.30;76.10;;;;;;10351499;28;20025;-63
2022/03/31 03:14:03;;;;;;;0.98;0.35;;;9.20;76.10;;;;;;10363694;28;20050;-63
2022/03/31 03:19:04;;;;;;;0.77;0.22;;;9.10;76.10;;;;;;10355269;28;20027;-64
2022/03/31 03:24:06;;;;;;;0.63;0.55;;;9.10;76.10;;;;;;10347684;28;20022;-64
2022/03/31 03:29:07;;;;;;;1.08;0.43;;;9.10;76.10;;;;;;10355115;28;20523;-64
2022/03/31 03:34:09;;;;;;;0.57;0.28;;;9.20;76.20;;;;;;10348811;28;20037;-65
2022/03/31 03:39:11;;;;;;;0.77;0.30;;;9.10;76.10;;;;;;10363943;28;20033;-65
2022/03/31 03:44:11;;;;;;;0.40;0.30;;;9.10;76.20;;;;;;10357047;28;20046;-65
2022/03/31 03:49:12;;;;;;;2.92;0.63;;;9.10;76.20;;;;;;10361656;28;20432;-65
2022/03/31 03:54:13;;;;;;;1.63;0.60;;;9.10;76.20;;;;;;10348872;28;20046;-64
2022/03/31 03:59:14;;;;;;;0.50;0.40;;;9.10;76.20;;;;;;10353653;28;20695;-64
2022/03/31 04:04:14;;;;;;;2.83;0.50;;;9.10;76.20;;;;;;10347340;28;20025;-64
2022/03/31 04:09:15;;;;;;;3.80;0.57;;;9.10;76.30;;;;;;10352974;28;20550;-64
2022/03/31 04:14:17;;;;;;;0.98;0.40;;;9.00;76.20;;;;;;10362153;28;20112;-64
2022/03/31 04:19:19;;;;;;;1.48;0.50;;;9.00;76.20;;;;;;10350125;28;20113;-64
2022/03/31 04:24:20;;;;;;;0.73;0.50;;;9.00;76.20;;;;;;10348528;28;20034;-64
2022/03/31 04:29:20;;;;;;;1.88;0.50;;;9.00;76.30;;;;;;10355487;28;20531;-63
2022/03/31 04:34:21;;;;;;;1.08;0.60;;;9.00;76.30;;;;;;10346633;28;20038;-65
2022/03/31 04:39:22;;;;;;;1.38;1.00;;;9.00;76.90;;;;;;10361858;28;20034;-65
2022/03/31 04:44:23;;;;;;;2.05;1.00;;;9.10;76.40;;;;;;10357287;28;20029;-62
2022/03/31 04:49:23;;;;;;;4.78;0.98;;;9.00;76.40;;;;;;10353450;28;20038;-66
2022/03/31 04:54:24;;;;;;;2.45;1.15;;;9.00;76.30;;;;;;10348662;28;20054;-67
2022/03/31 04:59:24;;;;;;;2.05;0.90;;;9.10;76.50;;;;;;10360838;28;20045;-63
2022/03/31 05:04:25;;;;;;;3.08;1.02;;;9.10;77.00;;;;;;10361486;28;20022;-65
2022/03/31 05:09:26;;;;;;;1.40;0.82;;;9.10;76.70;;;;;;10357866;28;20028;-67
2022/03/31 05:14:26;;;;;;;1.75;0.95;;;9.00;76.60;;;;;;10356179;28;20102;-64
2022/03/31 05:19:27;;;;;;;1.80;0.80;;;9.00;77.30;;;;;;10340322;28;20073;-67
2022/03/31 05:24:28;;;;;;;2.40;1.55;;;9.00;76.70;;;;;;10358861;28;20084;-62
2022/03/31 05:29:29;;;;;;;1.73;1.23;;;9.00;76.70;;;;;;10345978;28;20121;-63
2022/03/31 05:34:29;;;;;;;1.08;0.82;;;8.90;76.90;;;;;;10356612;28;20049;-65
2022/03/31 05:39:32;;;;;;;1.10;0.95;;;9.00;76.90;;;;;;10366228;28;20029;-63
2022/03/31 05:44:33;;;;;;;2.65;1.45;;;8.90;76.80;;;;;;10358203;28;20049;-61
2022/03/31 05:49:33;;;;;;;2.17;1.27;;;8.90;76.80;;;;;;10337384;28;20633;-61
2022/03/31 05:54:34;;;;;;;2.10;1.30;;;8.90;76.80;;;;;;10358881;28;20030;-65
2022/03/31 05:59:35;;;;;;;1.38;0.90;;;8.90;76.80;;;;;;10359340;28;20120;-63
2022/03/31 06:04:35;;;;;;;1.85;1.40;;;8.90;76.80;;;;;;10374499;28;20076;-61
2022/03/31 06:09:37;;;;;;;1.58;1.25;;;9.00;76.80;;;;;;10357778;28;20018;-63
2022/03/31 06:14:37;;;;;;;3.13;1.45;;;8.90;76.70;;;;;;10356425;28;20145;-60
2022/03/31 06:19:38;;;;;;;1.40;0.98;;;8.90;76.80;;;;;;10367506;28;20388;-61
2022/03/31 06:24:39;;;;;;;1.90;1.45;;;8.90;76.70;;;;;;10356618;28;20083;-61
2022/03/31 06:29:45;;;;;;;2.38;1.42;;;8.90;76.80;;;;;;10360497;28;20041;-62
2022/03/31 06:34:45;;;;;;;2.60;1.48;;;8.90;76.80;;;;;;10347735;28;20185;-63
2022/03/31 06:39:46;;;;;;;1.85;1.35;;;8.80;76.70;;;;;;10355594;28;20699;-62
2022/03/31 06:44:47;;;;;;;2.22;1.40;;;8.90;76.80;;;;;;10356678;28;20022;-63
2022/03/31 06:49:48;;;;;;;2.20;1.60;;;8.90;76.80;;;;;;10359100;28;20042;-62
2022/03/31 06:54:49;;;;;;;2.15;1.40;;;8.90;76.80;;;;;;10350366;28;20405;-62
2022/03/31 06:59:50;;;;;;;2.33;1.50;;;8.90;76.80;;;;;;10362041;28;20033;-64
2022/03/31 07:04:51;;;;;;;2.38;1.52;;;8.90;76.80;;;;;;10361499;28;20416;-61
2022/03/31 07:09:52;;;;;;;2.92;1.50;;;8.90;76.80;;;;;;10355507;28;20026;-61
2022/03/31 07:14:52;;;;;;;2.15;1.50;;;8.90;77.00;;;;;;10356364;28;20463;-60
2022/03/31 07:19:53;;;;;;;2.47;1.60;;;8.90;77.10;;;;;;10355487;28;20030;-60
2022/03/31 07:24:54;;;;;;;2.35;1.40;;;8.90;77.20;;;;;;10357486;28;20038;-62
2022/03/31 07:29:55;;;;;;;2.13;1.55;;;8.90;77.30;;;;;;10353030;28;20567;-61
2022/03/31 07:34:55;;;;;;;2.28;1.70;;;8.90;77.30;;;;;;10353012;28;20452;-60
2022/03/31 07:39:56;;;;;;;3.67;1.73;;;8.90;77.30;;;;;;10350184;28;20033;-60
2022/03/31 07:44:57;;;;;;;4.50;1.88;;;8.90;77.50;;;;;;10368559;28;20404;-60
2022/03/31 07:49:57;;;;;;;2.53;1.63;;;8.80;77.60;;;;;;10357328;28;20092;-62
2022/03/31 07:54:58;;;;;;;2.65;1.70;;;8.80;77.80;;;;;;10354330;28;20137;-64
2022/03/31 07:59:59;;;;;;;2.80;1.73;;;8.80;78.00;;;;;;10348276;28;20081;-62
2022/03/31 08:05:00;;;;;;;2.38;1.80;;;8.80;78.10;;;;;;10359033;28;20065;-65
2022/03/31 08:10:01;;;;;;;2.38;1.70;;;8.90;78.40;;;;;;10328369;28;20125;-61
2022/03/31 08:15:03;;;;;;;5.15;1.88;;;8.80;78.40;;;;;;10341027;28;20046;-60
2022/03/31 08:20:06;;;;;;;3.30;1.88;;;8.80;79.10;;;;;;10359425;28;20036;-62
2022/03/31 08:25:08;;;;;;;2.10;1.67;;;8.80;78.70;;;;;;10354257;28;20044;-61
2022/03/31 08:30:19;;;;;;;2.45;1.80;;;8.80;78.70;;;;;;10349269;28;20022;-61
2022/03/31 08:35:20;;;;;;;3.05;1.80;;;8.80;78.90;;;;;;10355534;28;20527;-61
2022/03/31 08:40:21;;;;;;;2.10;1.50;;;8.80;78.80;;;;;;10362881;28;20056;-61
2022/03/31 08:45:21;;;;;;;2.30;1.80;;;8.80;78.80;;;;;;10355305;28;20033;-61
2022/03/31 08:50:23;;;;;;;2.40;1.60;;;8.80;78.80;;;;;;10371769;28;20017;-60
2022/03/31 08:55:23;;;;;;;2.10;1.50;;;8.80;78.80;;;;;;10342796;28;20400;-63
2022/03/31 09:00:25;;;;;;;3.03;1.85;;;8.80;78.80;;;;;;10343561;28;20026;-61
2022/03/31 09:05:34;;;;;;;3.58;1.65;;;8.90;79.00;;;;;;10358866;28;20076;-64
2022/03/31 09:10:36;;;;;;;3.72;1.75;;;8.90;78.90;;;;;;10354721;28;20108;-61
2022/03/31 09:15:36;;;;;;;2.72;1.90;;;8.90;78.80;;;;;;10362201;28;20137;-62
2022/03/31 09:20:41;;;;;;;2.05;1.70;;;8.90;78.80;;;;;;10353542;28;20025;-61
2022/03/31 09:25:41;;;;;;;2.28;1.70;;;9.10;79.30;;;;;;10358967;28;20037;-61
2022/03/31 09:30:44;;;;;;;2.30;1.70;;;9.20;79.00;;;;;;10342476;28;20035;-62
2022/03/31 09:35:45;;;;;;;4.43;2.13;;;9.20;79.60;;;;;;10380108;28;20065;-60
2022/03/31 09:40:46;;;;;;;3.20;1.90;;;9.20;79.50;;;;;;10364776;28;20018;-63
2022/03/31 09:45:48;;;;;;;3.35;1.80;;;9.10;79.60;;;;;;10363479;28;20026;-62
2022/03/31 09:50:49;;;;;;;2.80;1.63;;;9.10;79.60;;;;;;10372894;28;20076;-60
2022/03/31 09:55:51;;;;;;;3.15;2.05;;;9.10;79.70;;;;;;10359385;28;20535;-62
2022/03/31 10:00:52;;;;;;;3.03;1.60;;;9.00;79.60;;;;;;10354034;28;20018;-61
2022/03/31 10:05:53;;;;;;;2.35;1.77;;;9.00;79.60;;;;;;10362653;28;20489;-61
2022/03/31 10:10:54;;;;;;;2.53;1.90;;;9.00;79.70;;;;;;10361240;28;20034;-62
2022/03/31 10:16:08;;;;;;;2.50;1.80;;;9.00;79.80;;;;;;10350028;28;20500;-62
2022/03/31 10:21:09;;;;;;;2.78;1.70;;;9.00;79.90;;;;;;10347155;28;20041;-63
2022/03/31 10:26:27;;;;;;;3.45;1.75;;;9.00;79.90;;;;;;10354119;28;20014;-66
2022/03/31 10:31:45;;;;;;;5.13;1.70;;;9.00;81.10;;;;;;10362383;28;20029;-62
2022/03/31 10:36:49;;;;;;;2.85;1.50;;;9.00;80.80;;;;;;10364480;28;20034;-61
2022/03/31 10:42:10;;;;;;;2.25;1.30;;;9.00;80.40;;;;;;10356589;28;20030;-60
2022/03/31 10:47:11;;;;;;;4.10;1.25;;;9.00;80.80;;;;;;10365459;28;20033;-63
2022/03/31 10:52:16;;;;;;;5.18;1.30;;;9.00;80.60;;;;;;10351376;28;20022;-64
2022/03/31 10:57:18;;;;;;;2.88;1.38;;;8.90;80.80;;;;;;10334423;28;20599;-63
2022/03/31 11:02:21;;;;;;;1.85;1.38;;;8.90;80.90;;;;;;10336526;28;20114;-60
2022/03/31 11:07:24;;;;;;;1.70;1.20;;;8.80;80.70;;;;;;10362720;28;20277;-63
2022/03/31 11:12:28;;;;;;;1.52;1.00;;;8.90;80.60;;;;;;10373122;28;20046;-66
2022/03/31 11:17:30;;;;;;;0.98;0.93;;;8.80;80.50;;;;;;10348483;28;20566;-59
2022/03/31 11:22:31;;;;;;;1.75;0.90;;;8.80;80.40;;;;;;10341128;28;20480;-62
2022/03/31 11:27:37;;;;;;;1.02;0.73;;;8.80;80.30;;;;;;10339283;28;20081;-59
2022/03/31 11:32:39;;;;;;;1.38;0.93;;;8.80;80.30;;;;;;10342382;28;20488;-60
2022/03/31 11:37:47;;;;;;;1.40;1.10;;;8.80;80.20;;;;;;10360764;28;20104;-60
2022/03/31 11:42:49;;;;;;;4.25;1.20;;;8.80;80.20;;;;;;10368368;28;20431;-64
2022/03/31 11:47:55;;;;;;;1.35;0.85;;;8.70;80.10;;;;;;10341139;28;20064;-64
2022/03/31 11:52:57;;;;;;;1.52;1.35;;;8.70;80.00;;;;;;10333967;28;20540;-62
2022/03/31 11:58:00;;;;;;;1.23;1.08;;;8.70;80.50;;;;;;10357790;28;20033;-60
2022/03/31 12:03:03;;;;;;;1.10;0.90;;;8.70;80.10;;;;;;10349714;28;20072;-62
2022/03/31 12:08:06;;;;;;;1.23;0.90;;;8.70;80.10;;;;;;10351753;28;20068;-73
2022/03/31 12:13:07;;;;;;;1.38;0.77;;;8.70;80.00;;;;;;10354127;28;20061;-63
2022/03/31 12:18:14;;;;;;;1.00;0.80;;;8.70;79.90;;;;;;10343019;28;20053;-62
2022/03/31 12:23:17;;;;;;;1.10;0.90;;;8.90;80.10;;;;;;10338072;28;20476;-62
2022/03/31 12:28:23;;;;;;;1.77;1.10;;;8.80;80.00;;;;;;10343411;28;20578;-63
2022/03/31 12:33:30;;;;;;;1.65;1.00;;;8.70;80.00;;;;;;10345324;28;20488;-62
2022/03/31 12:38:51;;;;;;;1.50;1.02;;;8.60;79.80;;;;;;10345094;28;20076;-60
2022/03/31 12:44:15;;;;;;;1.48;1.10;;;8.60;79.90;;;;;;10365624;28;20104;-60
2022/03/31 12:49:17;;;;;;;2.28;1.30;;;8.60;79.80;;;;;;10349924;28;20029;-61
2022/03/31 12:54:25;;;;;;;2.20;1.10;;;8.60;79.90;;;;;;10348391;28;20041;-60
2022/03/31 12:59:30;;;;;;;1.20;0.90;;;8.70;80.70;;;;;;10361793;28;20066;-60
2022/03/31 13:04:30;;;;;;;2.13;1.10;;;8.60;80.00;;;;;;10358837;28;20117;-62
2022/03/31 13:09:31;;;;;;;1.60;1.20;;;8.60;80.00;;;;;;10350132;28;20688;-63
2022/03/31 13:14:32;;;;;;;3.45;1.42;;;8.60;80.00;;;;;;10362436;28;20054;-61
2022/03/31 13:19:33;;;;;;;1.65;1.10;;;8.60;80.00;;;;;;10339983;28;20023;-63
2022/03/31 13:24:34;;;;;;;2.35;1.30;;;8.60;80.00;;;;;;10347555;28;20038;-63
2022/03/31 13:29:35;;;;;;;1.88;1.33;;;8.50;79.90;;;;;;10350594;28;20114;-60
2022/03/31 13:34:39;;;;;;;2.33;1.27;;;8.50;80.00;;;;;;10349069;28;20436;-61
2022/03/31 13:39:40;;;;;;;2.70;1.40;;;8.50;80.10;;;;;;10351131;28;20029;-61
2022/03/31 13:44:42;;;;;;;1.70;1.10;;;8.50;80.00;;;;;;10341400;28;20038;-59
2022/03/31 13:49:42;;;;;;;2.17;1.25;;;8.50;80.00;;;;;;10362228;28;20034;-64
2022/03/31 13:54:43;;;;;;;2.10;1.35;;;8.50;80.00;;;;;;10351026;28;20128;-61
2022/03/31 14:05:03;;;;;;;1.77;1.20;;;8.40;79.90;;;;;;10375004;28;20121;-65
2022/03/31 14:10:05;;;;;;;1.90;1.45;;;8.40;80.00;;;;;;10349502;28;20519;-60
2022/03/31 14:15:06;;;;;;;2.15;1.40;;;8.50;80.30;;;;;;10362023;28;20137;-62
2022/03/31 14:20:08;;;;;;;1.98;1.60;;;8.60;80.80;;;;;;10362330;28;20097;-67
2022/03/31 14:25:09;;;;;;;2.17;1.40;;;8.60;80.40;;;;;;10358330;28;20037;-67
2022/03/31 14:30:11;;;;;;;2.42;1.70;;;8.60;80.50;;;;;;10363764;28;20034;-60
2022/03/31 14:35:12;;;;;;;2.33;1.70;;;8.60;80.40;;;;;;10357968;28;20082;-62
2022/03/31 14:40:15;;;;;;;3.03;2.20;;;8.50;80.40;;;;;;10372819;28;20121;-68
2022/03/31 14:45:16;;;;;;;4.38;2.03;;;8.50;80.40;;;;;;10361640;28;20083;-67
2022/03/31 14:50:16;;;;;;;3.78;2.60;;;8.40;80.40;;;;;;10366370;28;20461;-62
2022/03/31 14:55:17;;;;;;;4.15;2.90;;;8.40;80.40;;;;;;10362111;28;20033;-60
2022/03/31 15:00:18;;;;;;;5.05;3.30;;;8.40;80.50;;;;;;10342967;28;20464;-61
2022/03/31 15:05:19;;;;;;;5.38;3.63;;;8.40;80.50;;;;;;10355089;28;20814;-61
2022/03/31 15:15:40;;;;;;;7.88;3.90;;;8.40;80.50;;;;;;10332075;28;20050;-59
2022/03/31 15:20:41;;;;;;;6.93;4.25;;;8.40;80.50;;;;;;10375439;28;20022;-65
2022/03/31 15:25:42;;;;;;;7.10;4.28;;;8.40;80.50;;;;;;10367346;28;20029;-62
2022/03/31 15:30:43;;;;;;;7.40;4.47;;;8.40;80.50;;;;;;10365550;28;20029;-62
2022/03/31 15:35:44;;;;;;;6.68;4.50;;;8.40;80.60;;;;;;10364009;28;20029;-61
2022/03/31 15:40:45;;;;;;;8.32;4.50;;;8.50;80.70;;;;;;10355303;28;20022;-63
2022/03/31 15:45:47;;;;;;;10.60;5.22;;;8.40;80.70;;;;;;10358275;28;20034;-63
2022/03/31 15:50:47;;;;;;;6.63;4.28;;;8.40;80.70;;;;;;10363135;28;20397;-62
2022/03/31 15:55:49;;;;;;;9.68;4.85;;;8.40;80.70;;;;;;10361277;28;20049;-62
2022/03/31 16:00:50;;;;;;;7.57;4.97;;;8.40;80.70;;;;;;10352963;28;20500;-62
2022/03/31 16:05:50;;;;;;;6.88;4.57;;;8.40;80.80;;;;;;10363011;28;20025;-66
2022/03/31 16:10:51;;;;;;;10.23;4.90;;;8.40;81.30;;;;;;10363678;28;20070;-65
2022/03/31 16:15:52;;;;;;;7.43;4.78;;;8.40;81.80;;;;;;10364242;28;20046;-64
2022/03/31 16:20:53;;;;;;;5.57;4.13;;;8.40;81.40;;;;;;10357434;28;20439;-62
2022/03/31 16:25:53;;;;;;;7.25;4.68;;;8.40;81.40;;;;;;10358033;28;20022;-63
2022/03/31 16:30:54;;;;;;;5.43;3.75;;;8.40;81.40;;;;;;10357310;28;20129;-60
2022/03/31 16:35:55;;;;;;;6.30;3.97;;;8.40;81.40;;;;;;10354327;28;20448;-61
2022/03/31 16:40:57;;;;;;;6.72;3.83;;;8.40;81.40;;;;;;10352007;28;20379;-61
2022/03/31 16:45:59;;;;;;;5.70;2.95;;;8.40;81.30;;;;;;10360076;28;20041;-68
2022/03/31 16:51:00;;;;;;;6.05;3.50;;;8.30;81.40;;;;;;10357984;28;20018;-67
2022/03/31 16:56:01;;;;;;;5.40;3.22;;;8.10;81.90;;;;;;10362018;28;20420;-63
2022/03/31 17:01:03;;;;;;;5.53;3.35;;;8.20;82.20;;;;;;10344537;28;20030;-66
2022/03/31 17:06:04;;;;;;;6.97;4.03;;;8.20;82.10;;;;;;10343184;28;20026;-62
2022/03/31 17:11:05;;;;;;;5.25;3.00;;;8.20;81.90;;;;;;10358041;28;20477;-65
2022/03/31 17:16:05;;;;;;;5.63;3.13;;;8.20;82.00;;;;;;10332354;28;20058;-64
2022/03/31 17:21:07;;;;;;;6.20;3.22;;;8.20;81.90;;;;;;10328327;28;20049;-66
2022/03/31 17:26:08;;;;;;;5.60;2.90;;;8.20;81.90;;;;;;10326596;28;20038;-64
2022/03/31 17:31:09;;;;;;;5.20;2.78;;;8.20;81.90;;;;;;10351032;28;20092;-68
2022/03/31 17:36:10;;;;;;;4.45;3.03;;;8.30;83.20;;;;;;10355733;28;20113;-62
2022/03/31 17:41:10;;;;;;;6.65;2.80;;;8.40;82.50;;;;;;10331278;28;20039;-64
2022/03/31 17:46:12;;;;;;;5.78;2.85;;;8.40;82.50;;;;;;10339773;28;20405;-65
2022/03/31 17:51:13;;;;;;;5.00;2.63;;;8.40;82.50;;;;;;10333660;28;20060;-65
2022/03/31 17:56:13;;;;;;;4.13;2.55;;;8.40;82.50;;;;;;10341585;28;20598;-65
2022/03/31 18:01:14;;;;;;;4.53;2.42;;;8.30;82.30;;;;;;10346411;28;20030;-62
2022/03/31 18:06:16;;;;;;;4.38;2.38;;;8.30;82.20;;;;;;10337226;28;20044;-63
2022/03/31 18:11:18;;;;;;;4.47;2.75;;;8.30;82.40;;;;;;10347963;28;20121;-64
2022/03/31 18:16:19;;;;;;;4.38;2.50;;;8.30;82.80;;;;;;10334989;28;20050;-63
2022/03/31 18:21:21;;;;;;;4.35;2.20;;;8.30;82.10;;;;;;10331130;28;20022;-63
2022/03/31 18:26:26;;;;;;;3.45;1.98;;;8.30;82.70;;;;;;10326133;28;20575;-64
2022/03/31 18:36:47;;;;;;;3.70;1.90;;;8.20;82.20;;;;;;10342123;28;20042;-63
2022/03/31 18:41:47;;;;;;;3.88;2.05;;;8.30;82.10;;;;;;10336304;28;20026;-64
2022/03/31 18:46:48;;;;;;;4.05;1.98;;;8.20;82.10;;;;;;10339176;28;20030;-63
2022/03/31 18:51:49;;;;;;;2.83;1.70;;;8.10;82.00;;;;;;10360387;28;20056;-63
2022/03/31 18:56:52;;;;;;;4.55;1.80;;;8.10;82.10;;;;;;10363998;28;20044;-63
2022/03/31 19:01:53;;;;;;;2.53;1.52;;;8.10;82.00;;;;;;10358944;28;20112;-63
2022/03/31 19:07:02;;;;;;;3.63;1.77;;;8.10;81.80;;;;;;10364750;28;20036;-63
2022/03/31 19:12:06;;;;;;;2.75;1.48;;;8.10;81.70;;;;;;10355204;28;20037;-64
2022/03/31 19:17:07;;;;;;;3.50;1.60;;;8.10;81.60;;;;;;10355035;28;20037;-69
2022/03/31 19:22:08;;;;;;;1.92;1.35;;;9.10;82.20;;;;;;10362301;28;20476;-68
2022/03/31 19:27:09;;;;;;;1.77;1.27;;;8.10;81.60;;;;;;10360648;28;21193;-68
2022/03/31 19:32:10;;;;;;;1.70;1.02;;;8.10;81.60;;;;;;10359313;28;20500;-65
2022/03/31 19:37:11;;;;;;;1.85;1.20;;;8.10;81.60;;;;;;10355716;28;20056;-66
2022/03/31 19:42:12;;;;;;;2.42;1.20;;;8.10;81.50;;;;;;10361605;28;20029;-69
2022/03/31 19:47:13;;;;;;;1.75;1.05;;;8.10;81.50;;;;;;10365674;28;20072;-63
2022/03/31 19:52:14;;;;;;;2.30;1.08;;;8.10;81.60;;;;;;10374779;28;20661;-65
2022/03/31 19:57:15;;;;;;;1.50;1.00;;;8.10;81.70;;;;;;10375493;28;20041;-64
2022/03/31 20:02:16;;;;;;;1.80;1.05;;;8.10;81.70;;;;;;10374639;28;20026;-63
2022/03/31 20:07:17;;;;;;;1.52;0.95;;;8.00;81.50;;;;;;10374818;28;20488;-64
2022/03/31 20:12:18;;;;;;;1.38;0.80;;;8.00;81.50;;;;;;10362069;28;20050;-64
2022/03/31 20:17:20;;;;;;;2.63;0.90;;;8.00;81.40;;;;;;10361968;28;20132;-63
2022/03/31 20:22:20;;;;;;;1.00;0.90;;;8.20;81.40;;;;;;10360684;28;20053;-64
2022/03/31 20:27:21;;;;;;;1.92;0.90;;;8.00;81.30;;;;;;10367304;28;20052;-64
2022/03/31 20:32:22;;;;;;;2.70;1.10;;;8.00;81.20;;;;;;10354731;28;20076;-62
2022/03/31 20:37:23;;;;;;;3.03;1.00;;;8.10;81.10;;;;;;10343670;28;20041;-65
2022/03/31 20:42:28;;;;;;;1.58;0.95;;;8.10;81.00;;;;;;10349532;28;20024;-62
2022/03/31 20:47:29;;;;;;;2.72;0.98;;;8.00;81.20;;;;;;10363865;28;20484;-63
2022/03/31 20:52:30;;;;;;;0.93;0.70;;;8.00;81.00;;;;;;10373025;28;20025;-64
2022/03/31 20:57:31;;;;;;;3.00;1.30;;;8.10;81.00;;;;;;10371373;28;20053;-63
2022/03/31 21:02:31;;;;;;;1.23;0.70;;;8.00;80.90;;;;;;10363348;28;20411;-64
2022/03/31 21:07:32;;;;;;;1.30;0.75;;;8.00;80.90;;;;;;10363603;28;20121;-64
2022/03/31 21:12:33;;;;;;;3.08;1.13;;;8.00;80.70;;;;;;10378183;28;20057;-64
2022/03/31 21:17:34;;;;;;;2.00;0.93;;;8.00;80.70;;;;;;10353031;28;20042;-63
2022/03/31 21:22:36;;;;;;;2.55;1.25;;;8.00;80.70;;;;;;10363646;28;20033;-64
2022/03/31 21:27:39;;;;;;;0.95;0.60;;;8.00;80.90;;;;;;10374924;28;20163;-64
2022/03/31 21:32:41;;;;;;;1.50;0.90;;;8.50;80.90;;;;;;10374267;28;20062;-61
2022/03/31 21:37:42;;;;;;;2.33;0.82;;;8.50;81.10;;;;;;10359173;28;20128;-63
2022/03/31 21:42:43;;;;;;;1.35;0.80;;;7.90;80.70;;;;;;10367474;28;20022;-63
2022/03/31 21:47:44;;;;;;;1.35;0.77;;;7.90;80.70;;;;;;10365819;28;20040;-64
2022/03/31 21:52:45;;;;;;;1.88;0.98;;;7.90;81.20;;;;;;10351643;28;20428;-64
2022/03/31 21:57:48;;;;;;;1.27;0.70;;;7.90;80.80;;;;;;10354853;28;20053;-64
2022/03/31 22:02:49;;;;;;;1.60;0.77;;;7.90;80.80;;;;;;10338855;28;20029;-64
2022/03/31 22:07:50;;;;;;;4.93;0.73;;;7.90;80.80;;;;;;10334387;28;20133;-61
2022/03/31 22:12:51;;;;;;;2.72;0.70;;;7.90;80.80;;;;;;10351143;28;20137;-64
2022/03/31 22:17:52;;;;;;;2.03;0.80;;;7.80;80.70;;;;;;10364519;28;20055;-64
2022/03/31 22:22:53;;;;;;;1.77;1.02;;;7.80;80.80;;;;;;10340715;28;20019;-63
2022/03/31 22:27:54;;;;;;;2.42;0.90;;;7.80;80.90;;;;;;10356504;28;20010;-63
2022/03/31 22:32:54;;;;;;;1.60;0.90;;;7.80;80.90;;;;;;10352897;28;20042;-64
2022/03/31 22:37:56;;;;;;;1.73;1.00;;;7.80;81.00;;;;;;10358817;28;20092;-64
2022/03/31 22:42:58;;;;;;;0.90;0.70;;;7.80;81.10;;;;;;10354326;28;20030;-64
2022/03/31 22:47:59;;;;;;;1.67;0.93;;;7.80;81.20;;;;;;10359944;28;20080;-62
2022/03/31 22:53:00;;;;;;;1.20;0.70;;;7.70;81.20;;;;;;10349065;28;20030;-64
2022/03/31 22:58:01;;;;;;;1.30;0.73;;;7.70;81.20;;;;;;10339002;28;20069;-63
2022/03/31 23:03:02;;;;;;;1.58;1.00;;;7.70;81.10;;;;;;10360368;28;20485;-64
2022/03/31 23:08:02;;;;;;;1.23;0.73;;;7.70;81.10;;;;;;10350689;28;20481;-63
2022/03/31 23:13:04;;;;;;;1.52;0.85;;;7.70;81.10;;;;;;10361361;28;20038;-63
2022/03/31 23:18:07;;;;;;;1.75;0.80;;;7.70;81.00;;;;;;10357092;28;20042;-62
2022/03/31 23:23:08;;;;;;;1.58;1.10;;;7.60;80.90;;;;;;10356827;28;20037;-64
2022/03/31 23:28:09;;;;;;;1.20;0.90;;;7.60;81.00;;;;;;10364812;28;20481;-62
2022/03/31 23:33:10;;;;;;;2.85;1.00;;;7.60;81.00;;;;;;10339390;28;20037;-63
2022/03/31 23:38:11;;;;;;;1.23;0.70;;;7.60;81.00;;;;;;10351876;28;20052;-63
2022/03/31 23:43:13;;;;;;;2.10;0.90;;;7.60;81.20;;;;;;10352065;28;20030;-63
2022/03/31 23:48:15;;;;;;;1.42;0.90;;;7.60;81.10;;;;;;10365501;28;20040;-63
2022/03/31 23:53:18;;;;;;;1.58;1.00;;;7.60;81.10;;;;;;10345679;28;20092;-63
2022/03/31 23:58:19;;;;;;;4.10;1.00;;;7.60;82.10;;;;;;10360236;28;20073;-62
